createdAt,value
2017-11-17T00:00:17.888Z,7.32
2017-11-17T00:00:58.481Z,7.33
2017-11-17T00:01:39.090Z,7.33
2017-11-17T00:02:19.684Z,7.32
2017-11-17T00:03:00.315Z,7.29
2017-11-17T00:03:40.915Z,7.32
2017-11-17T00:04:21.508Z,7.28
2017-11-17T00:05:02.097Z,7.32
2017-11-17T00:05:42.703Z,7.33
2017-11-17T00:06:23.276Z,7.32
2017-11-17T00:07:03.874Z,7.28
2017-11-17T00:07:44.450Z,7.29
2017-11-17T00:08:25.047Z,7.33
2017-11-17T00:09:05.658Z,7.36
2017-11-17T00:09:46.225Z,7.42
2017-11-17T00:10:26.825Z,7.48
2017-11-17T00:11:07.408Z,7.47
2017-11-17T00:11:47.998Z,7.4
2017-11-17T00:12:28.624Z,7.42
2017-11-17T00:13:09.210Z,7.42
2017-11-17T00:13:49.825Z,7.4
2017-11-17T00:14:30.403Z,7.48
2017-11-17T00:15:10.996Z,7.5
2017-11-17T00:15:51.571Z,7.47
2017-11-17T00:16:32.162Z,7.43
2017-11-17T00:17:12.760Z,7.45
2017-11-17T00:17:53.376Z,7.39
2017-11-17T00:18:33.990Z,7.45
2017-11-17T00:19:14.607Z,7.42
2017-11-17T00:19:55.195Z,7.39
2017-11-17T00:20:35.784Z,7.35
2017-11-17T00:21:16.394Z,7.36
2017-11-17T00:21:56.976Z,7.33
2017-11-17T00:22:37.598Z,7.45
2017-11-17T00:23:18.180Z,7.38
2017-11-17T00:23:58.773Z,7.31
2017-11-17T00:24:39.392Z,7.32
2017-11-17T00:25:20.061Z,7.25
2017-11-17T00:26:00.664Z,7.29
2017-11-17T00:26:41.239Z,7.32
2017-11-17T00:27:21.826Z,7.29
2017-11-17T00:28:02.455Z,7.28
2017-11-17T00:28:43.057Z,7.33
2017-11-17T00:29:23.635Z,7.28
2017-11-17T00:30:04.272Z,7.29
2017-11-17T00:30:44.872Z,7.29
2017-11-17T00:31:25.472Z,7.25
2017-11-17T00:32:06.060Z,7.33
2017-11-17T00:32:46.664Z,7.29
2017-11-17T00:33:27.253Z,7.24
2017-11-17T00:34:07.864Z,7.29
2017-11-17T00:34:48.469Z,7.24
2017-11-17T00:35:29.175Z,7.25
2017-11-17T00:36:09.783Z,7.36
2017-11-17T00:36:50.373Z,7.29
2017-11-17T00:37:30.953Z,7.32
2017-11-17T00:38:11.554Z,7.43
2017-11-17T00:38:52.146Z,7.31
2017-11-17T00:39:32.766Z,7.35
2017-11-17T00:40:13.366Z,7.39
2017-11-17T00:40:53.980Z,7.36
2017-11-17T00:41:34.606Z,7.36
2017-11-17T00:42:15.212Z,7.4
2017-11-17T00:42:55.810Z,7.35
2017-11-17T00:43:36.408Z,7.39
2017-11-17T00:44:17.024Z,7.33
2017-11-17T00:44:57.616Z,7.33
2017-11-17T00:45:38.211Z,7.36
2017-11-17T00:46:18.804Z,7.39
2017-11-17T00:46:59.400Z,7.47
2017-11-17T00:47:40.031Z,7.42
2017-11-17T00:48:20.623Z,7.45
2017-11-17T00:49:01.227Z,7.42
2017-11-17T00:49:41.839Z,7.39
2017-11-17T00:50:22.446Z,7.42
2017-11-17T00:51:03.005Z,7.42
2017-11-17T00:51:43.603Z,7.39
2017-11-17T00:52:24.207Z,7.47
2017-11-17T00:53:04.817Z,7.43
2017-11-17T00:53:45.413Z,7.43
2017-11-17T00:54:26.019Z,7.5
2017-11-17T00:55:06.605Z,7.48
2017-11-17T00:55:47.229Z,7.48
2017-11-17T00:56:27.850Z,7.51
2017-11-17T00:57:08.486Z,7.48
2017-11-17T00:57:49.082Z,7.5
2017-11-17T00:58:29.676Z,7.56
2017-11-17T00:59:10.264Z,7.43
2017-11-17T00:59:50.852Z,7.53
2017-11-17T01:00:31.560Z,7.39
2017-11-17T01:01:12.218Z,7.54
2017-11-17T01:01:52.900Z,7.5
2017-11-17T01:02:33.994Z,7.54
2017-11-17T01:03:14.556Z,7.47
2017-11-17T01:03:55.332Z,7.51
2017-11-17T01:04:36.017Z,7.53
2017-11-17T01:05:16.628Z,7.53
2017-11-17T01:05:57.205Z,7.57
2017-11-17T01:06:37.810Z,7.47
2017-11-17T01:07:18.384Z,7.58
2017-11-17T01:07:58.991Z,7.47
2017-11-17T01:08:39.580Z,7.54
2017-11-17T01:09:20.157Z,7.53
2017-11-17T01:10:00.761Z,7.51
2017-11-17T01:10:41.367Z,7.58
2017-11-17T01:11:21.955Z,7.57
2017-11-17T01:12:02.552Z,7.66
2017-11-17T01:12:43.132Z,7.66
2017-11-17T01:13:23.729Z,7.6
2017-11-17T01:14:04.348Z,7.53
2017-11-17T01:14:44.940Z,7.61
2017-11-17T01:15:25.543Z,7.54
2017-11-17T01:16:06.135Z,7.5
2017-11-17T01:16:46.707Z,7.5
2017-11-17T01:17:27.351Z,7.48
2017-11-17T01:18:07.931Z,7.58
2017-11-17T01:18:48.541Z,7.6
2017-11-17T01:19:29.171Z,7.61
2017-11-17T01:20:09.738Z,7.61
2017-11-17T01:20:50.339Z,7.66
2017-11-17T01:21:30.940Z,7.66
2017-11-17T01:22:11.553Z,7.69
2017-11-17T01:22:52.145Z,7.67
2017-11-17T01:23:32.718Z,7.69
2017-11-17T01:24:13.300Z,7.61
2017-11-17T01:24:53.878Z,7.61
2017-11-17T01:25:34.464Z,7.67
2017-11-17T01:26:15.059Z,7.6
2017-11-17T01:26:55.649Z,7.69
2017-11-17T01:27:36.254Z,7.61
2017-11-17T01:28:16.856Z,7.61
2017-11-17T01:28:57.452Z,7.75
2017-11-17T01:29:38.039Z,7.72
2017-11-17T01:30:18.643Z,7.75
2017-11-17T01:30:59.246Z,7.76
2017-11-17T01:31:39.832Z,7.69
2017-11-17T01:32:20.445Z,7.73
2017-11-17T01:33:01.032Z,7.72
2017-11-17T01:33:41.667Z,7.82
2017-11-17T01:34:22.251Z,7.7
2017-11-17T01:35:02.809Z,7.73
2017-11-17T01:35:43.425Z,7.77
2017-11-17T01:36:24.053Z,7.76
2017-11-17T01:37:04.665Z,7.73
2017-11-17T01:37:45.255Z,7.73
2017-11-17T01:38:25.845Z,7.73
2017-11-17T01:39:06.423Z,7.75
2017-11-17T01:39:47.018Z,7.77
2017-11-17T01:40:27.603Z,7.73
2017-11-17T01:41:08.200Z,7.72
2017-11-17T01:41:48.798Z,7.73
2017-11-17T01:42:29.392Z,7.72
2017-11-17T01:43:09.997Z,7.7
2017-11-17T01:43:50.570Z,7.72
2017-11-17T01:44:33.827Z,7.69
2017-11-17T01:45:14.531Z,7.72
2017-11-17T01:45:55.123Z,7.76
2017-11-17T01:46:35.683Z,7.67
2017-11-17T01:47:16.261Z,7.76
2017-11-17T01:47:56.853Z,7.66
2017-11-17T01:48:37.442Z,7.73
2017-11-17T01:49:18.017Z,7.63
2017-11-17T01:49:58.605Z,7.6
2017-11-17T01:50:39.245Z,7.61
2017-11-17T01:51:19.826Z,7.6
2017-11-17T01:52:00.407Z,7.63
2017-11-17T01:52:40.978Z,7.63
2017-11-17T01:53:21.560Z,7.7
2017-11-17T01:54:02.132Z,7.72
2017-11-17T01:54:42.721Z,7.63
2017-11-17T01:55:23.411Z,7.72
2017-11-17T01:56:03.983Z,7.72
2017-11-17T01:56:44.561Z,7.67
2017-11-17T01:57:25.135Z,7.69
2017-11-17T01:58:05.709Z,7.72
2017-11-17T01:58:46.270Z,7.69
2017-11-17T01:59:26.841Z,7.75
2017-11-17T02:00:07.412Z,7.69
2017-11-17T02:00:47.974Z,7.75
2017-11-17T02:01:28.557Z,7.73
2017-11-17T02:02:09.184Z,7.66
2017-11-17T02:02:49.775Z,7.63
2017-11-17T02:03:30.345Z,7.6
2017-11-17T02:04:10.917Z,7.67
2017-11-17T02:04:51.488Z,7.58
2017-11-17T02:05:32.081Z,7.63
2017-11-17T02:06:12.680Z,7.66
2017-11-17T02:06:53.246Z,7.54
2017-11-17T02:07:33.853Z,7.47
2017-11-17T02:08:14.456Z,7.53
2017-11-17T02:08:55.066Z,7.54
2017-11-17T02:09:35.655Z,7.45
2017-11-17T02:10:16.248Z,7.5
2017-11-17T02:10:56.818Z,7.56
2017-11-17T02:11:37.406Z,7.51
2017-11-17T02:12:18.001Z,7.54
2017-11-17T02:12:58.588Z,7.54
2017-11-17T02:13:39.193Z,7.45
2017-11-17T02:14:19.773Z,7.54
2017-11-17T02:15:00.351Z,7.5
2017-11-17T02:15:40.972Z,7.56
2017-11-17T02:16:21.573Z,7.54
2017-11-17T02:17:02.186Z,7.54
2017-11-17T02:17:42.801Z,7.5
2017-11-17T02:18:23.388Z,7.56
2017-11-17T02:19:03.978Z,7.48
2017-11-17T02:19:44.576Z,7.43
2017-11-17T02:20:25.161Z,7.54
2017-11-17T02:21:05.750Z,7.39
2017-11-17T02:21:46.322Z,7.47
2017-11-17T02:22:26.903Z,7.4
2017-11-17T02:23:07.507Z,7.48
2017-11-17T02:23:48.094Z,7.4
2017-11-17T02:24:28.712Z,7.33
2017-11-17T02:25:09.316Z,7.42
2017-11-17T02:25:49.902Z,7.42
2017-11-17T02:26:30.486Z,7.36
2017-11-17T02:27:11.069Z,7.43
2017-11-17T02:27:51.661Z,7.45
2017-11-17T02:28:32.257Z,7.4
2017-11-17T02:29:12.849Z,7.38
2017-11-17T02:29:53.450Z,7.42
2017-11-17T02:30:34.012Z,7.43
2017-11-17T02:31:14.604Z,7.42
2017-11-17T02:31:55.198Z,7.51
2017-11-17T02:32:35.825Z,7.47
2017-11-17T02:33:16.420Z,7.5
2017-11-17T02:33:57.008Z,7.54
2017-11-17T02:34:37.601Z,7.5
2017-11-17T02:35:18.186Z,7.54
2017-11-17T02:35:58.779Z,7.48
2017-11-17T02:36:39.374Z,7.58
2017-11-17T02:37:19.953Z,7.53
2017-11-17T02:38:00.522Z,7.53
2017-11-17T02:38:41.141Z,7.56
2017-11-17T02:39:21.725Z,7.61
2017-11-17T02:40:02.327Z,7.66
2017-11-17T02:40:42.926Z,7.54
2017-11-17T02:41:23.516Z,7.6
2017-11-17T02:42:04.117Z,7.66
2017-11-17T02:42:44.725Z,7.66
2017-11-17T02:43:25.316Z,7.6
2017-11-17T02:44:05.920Z,7.66
2017-11-17T02:44:46.499Z,7.58
2017-11-17T02:45:27.312Z,7.58
2017-11-17T02:46:07.877Z,7.61
2017-11-17T02:46:48.492Z,7.53
2017-11-17T02:47:29.087Z,7.61
2017-11-17T02:48:09.682Z,7.61
2017-11-17T02:48:50.263Z,7.5
2017-11-17T02:49:30.841Z,7.61
2017-11-17T02:50:11.445Z,7.5
2017-11-17T02:50:52.034Z,7.48
2017-11-17T02:51:32.641Z,7.57
2017-11-17T02:52:13.238Z,7.51
2017-11-17T02:52:53.825Z,7.58
2017-11-17T02:53:34.416Z,7.5
2017-11-17T02:54:15.038Z,7.48
2017-11-17T02:54:55.590Z,7.48
2017-11-17T02:55:36.199Z,7.57
2017-11-17T02:56:16.799Z,7.5
2017-11-17T02:56:57.396Z,7.57
2017-11-17T02:57:37.990Z,7.5
2017-11-17T02:58:18.575Z,7.61
2017-11-17T02:58:59.169Z,7.57
2017-11-17T02:59:39.768Z,7.53
2017-11-17T03:00:20.338Z,7.54
2017-11-17T03:01:00.913Z,7.53
2017-11-17T03:01:41.504Z,7.66
2017-11-17T03:02:22.094Z,7.61
2017-11-17T03:03:02.682Z,7.61
2017-11-17T03:03:43.280Z,7.57
2017-11-17T03:04:23.867Z,7.63
2017-11-17T03:05:04.445Z,7.58
2017-11-17T03:05:45.055Z,7.58
2017-11-17T03:06:25.633Z,7.57
2017-11-17T03:07:06.236Z,7.6
2017-11-17T03:07:46.843Z,7.6
2017-11-17T03:08:27.442Z,7.58
2017-11-17T03:09:08.024Z,7.58
2017-11-17T03:09:48.606Z,7.63
2017-11-17T03:10:29.203Z,7.61
2017-11-17T03:11:09.795Z,7.69
2017-11-17T03:11:50.378Z,7.67
2017-11-17T03:12:30.944Z,7.67
2017-11-17T03:13:11.518Z,7.63
2017-11-17T03:13:52.106Z,7.66
2017-11-17T03:14:32.696Z,7.7
2017-11-17T03:15:13.284Z,7.73
2017-11-17T03:15:53.857Z,7.72
2017-11-17T03:16:34.425Z,7.69
2017-11-17T03:17:15.013Z,7.72
2017-11-17T03:17:55.581Z,7.73
2017-11-17T03:18:36.204Z,7.7
2017-11-17T03:19:16.766Z,7.73
2017-11-17T03:19:57.350Z,7.77
2017-11-17T03:20:37.931Z,7.73
2017-11-17T03:21:18.548Z,7.77
2017-11-17T03:21:59.143Z,7.9
2017-11-17T03:22:39.745Z,7.82
2017-11-17T03:23:20.356Z,7.91
2017-11-17T03:24:00.943Z,7.76
2017-11-17T03:24:41.512Z,7.87
2017-11-17T03:25:22.103Z,7.8
2017-11-17T03:26:02.680Z,7.79
2017-11-17T03:26:43.277Z,7.83
2017-11-17T03:27:23.844Z,7.79
2017-11-17T03:28:04.425Z,7.93
2017-11-17T03:28:46.091Z,7.87
2017-11-17T03:29:26.709Z,7.85
2017-11-17T03:30:07.295Z,7.87
2017-11-17T03:30:47.928Z,7.87
2017-11-17T03:31:28.458Z,7.93
2017-11-17T03:32:09.044Z,7.94
2017-11-17T03:32:49.619Z,7.88
2017-11-17T03:33:30.194Z,7.85
2017-11-17T03:34:10.790Z,7.85
2017-11-17T03:34:51.358Z,7.85
2017-11-17T03:35:31.925Z,7.97
2017-11-17T03:36:13.145Z,7.82
2017-11-17T03:36:53.724Z,7.91
2017-11-17T03:37:34.297Z,7.9
2017-11-17T03:38:14.849Z,7.85
2017-11-17T03:38:55.418Z,7.94
2017-11-17T03:39:35.994Z,7.9
2017-11-17T03:40:16.576Z,7.87
2017-11-17T03:40:57.164Z,7.82
2017-11-17T03:41:37.799Z,7.8
2017-11-17T03:42:18.371Z,7.9
2017-11-17T03:42:59.002Z,7.95
2017-11-17T03:43:39.579Z,8.01
2017-11-17T03:44:20.176Z,7.91
2017-11-17T03:45:00.770Z,7.94
2017-11-17T03:45:41.359Z,7.95
2017-11-17T03:46:21.943Z,7.98
2017-11-17T03:47:02.536Z,7.9
2017-11-17T03:47:43.135Z,7.94
2017-11-17T03:48:23.716Z,7.98
2017-11-17T03:49:04.297Z,7.93
2017-11-17T03:49:44.883Z,7.97
2017-11-17T03:50:25.471Z,7.97
2017-11-17T03:51:06.038Z,7.94
2017-11-17T03:51:46.614Z,8
2017-11-17T03:52:27.176Z,8.03
2017-11-17T03:53:07.748Z,8.01
2017-11-17T03:53:48.311Z,8.09
2017-11-17T03:54:28.913Z,8.12
2017-11-17T03:55:09.489Z,8.06
2017-11-17T03:55:50.062Z,7.98
2017-11-17T03:56:30.653Z,8.01
2017-11-17T03:57:11.228Z,7.97
2017-11-17T03:57:51.821Z,8.03
2017-11-17T03:58:32.368Z,8.01
2017-11-17T03:59:12.987Z,7.97
2017-11-17T03:59:53.548Z,8
2017-11-17T04:00:34.143Z,8
2017-11-17T04:01:14.721Z,8.08
2017-11-17T04:01:55.302Z,8.06
2017-11-17T04:02:35.893Z,8.15
2017-11-17T04:03:16.473Z,8.15
2017-11-17T04:03:57.063Z,8.13
2017-11-17T04:04:37.623Z,8.13
2017-11-17T04:05:18.218Z,8.13
2017-11-17T04:05:58.807Z,8.15
2017-11-17T04:06:39.395Z,8.13
2017-11-17T04:07:19.956Z,8.23
2017-11-17T04:08:00.596Z,8.23
2017-11-17T04:08:41.162Z,8.2
2017-11-17T04:09:21.738Z,8.23
2017-11-17T04:10:02.345Z,8.27
2017-11-17T04:10:42.908Z,8.18
2017-11-17T04:11:23.478Z,8.2
2017-11-17T04:12:04.064Z,8.26
2017-11-17T04:12:44.658Z,8.26
2017-11-17T04:13:25.206Z,8.23
2017-11-17T04:14:05.796Z,8.31
2017-11-17T04:14:46.371Z,8.31
2017-11-17T04:15:26.943Z,8.3
2017-11-17T04:16:07.518Z,8.3
2017-11-17T04:16:48.072Z,8.28
2017-11-17T04:17:28.675Z,8.31
2017-11-17T04:18:09.232Z,8.3
2017-11-17T04:18:49.851Z,8.26
2017-11-17T04:19:30.406Z,8.33
2017-11-17T04:20:10.964Z,8.37
2017-11-17T04:20:51.565Z,8.31
2017-11-17T04:21:32.125Z,8.42
2017-11-17T04:22:12.692Z,8.36
2017-11-17T04:22:53.274Z,8.34
2017-11-17T04:23:33.864Z,8.46
2017-11-17T04:24:14.435Z,8.42
2017-11-17T04:24:55.060Z,8.38
2017-11-17T04:25:35.639Z,8.37
2017-11-17T04:26:16.203Z,8.41
2017-11-17T04:26:56.821Z,8.33
2017-11-17T04:27:37.400Z,8.42
2017-11-17T04:28:17.957Z,8.41
2017-11-17T04:28:58.572Z,8.44
2017-11-17T04:29:39.210Z,8.42
2017-11-17T04:30:19.809Z,8.46
2017-11-17T04:31:00.397Z,8.42
2017-11-17T04:31:40.993Z,8.42
2017-11-17T04:32:21.598Z,8.42
2017-11-17T04:33:02.151Z,8.45
2017-11-17T04:33:42.727Z,8.53
2017-11-17T04:34:23.294Z,8.48
2017-11-17T04:35:03.872Z,8.49
2017-11-17T04:35:44.439Z,8.46
2017-11-17T04:36:25.007Z,8.53
2017-11-17T04:37:06.097Z,8.49
2017-11-17T04:37:46.794Z,8.51
2017-11-17T04:38:27.362Z,8.53
2017-11-17T04:39:07.954Z,8.49
2017-11-17T04:39:48.532Z,8.55
2017-11-17T04:40:29.109Z,8.56
2017-11-17T04:41:09.680Z,8.53
2017-11-17T04:41:50.282Z,8.55
2017-11-17T04:42:30.862Z,8.63
2017-11-17T04:43:11.402Z,8.64
2017-11-17T04:43:51.978Z,8.58
2017-11-17T04:44:32.559Z,8.63
2017-11-17T04:45:13.113Z,8.64
2017-11-17T04:45:53.694Z,8.67
2017-11-17T04:46:34.269Z,8.64
2017-11-17T04:47:14.891Z,8.67
2017-11-17T04:47:55.513Z,8.66
2017-11-17T04:48:36.067Z,8.64
2017-11-17T04:49:16.657Z,8.61
2017-11-17T04:49:57.274Z,8.63
2017-11-17T04:50:37.901Z,8.63
2017-11-17T04:51:18.473Z,8.66
2017-11-17T04:51:59.079Z,8.66
2017-11-17T04:52:39.648Z,8.7
2017-11-17T04:53:20.235Z,8.73
2017-11-17T04:54:00.898Z,8.73
2017-11-17T04:54:41.470Z,8.7
2017-11-17T04:55:22.058Z,8.73
2017-11-17T04:56:02.666Z,8.7
2017-11-17T04:56:43.262Z,8.73
2017-11-17T04:57:23.846Z,8.78
2017-11-17T04:58:04.407Z,8.73
2017-11-17T04:58:44.980Z,8.73
2017-11-17T04:59:25.565Z,8.76
2017-11-17T05:00:06.142Z,8.74
2017-11-17T05:00:46.715Z,8.76
2017-11-17T05:01:28.078Z,8.74
2017-11-17T05:02:08.652Z,8.79
2017-11-17T05:02:49.236Z,8.76
2017-11-17T05:03:29.824Z,8.76
2017-11-17T05:04:10.418Z,8.76
2017-11-17T05:04:51.002Z,8.85
2017-11-17T05:05:31.574Z,8.88
2017-11-17T05:06:12.165Z,8.78
2017-11-17T05:06:52.783Z,8.78
2017-11-17T05:07:33.368Z,8.76
2017-11-17T05:08:13.947Z,8.87
2017-11-17T05:08:54.538Z,8.85
2017-11-17T05:09:35.094Z,8.78
2017-11-17T05:10:15.683Z,8.82
2017-11-17T05:10:56.291Z,8.91
2017-11-17T05:11:36.873Z,8.89
2017-11-17T05:12:17.444Z,8.85
2017-11-17T05:12:58.006Z,8.91
2017-11-17T05:13:38.582Z,8.88
2017-11-17T05:14:19.491Z,8.91
2017-11-17T05:15:00.130Z,8.91
2017-11-17T05:15:40.700Z,8.89
2017-11-17T05:16:21.274Z,8.92
2017-11-17T05:17:01.850Z,8.89
2017-11-17T05:17:42.463Z,8.91
2017-11-17T05:18:23.094Z,8.91
2017-11-17T05:19:03.675Z,8.91
2017-11-17T05:19:44.361Z,8.91
2017-11-17T05:20:24.967Z,8.97
2017-11-17T05:21:05.631Z,8.94
2017-11-17T05:21:46.449Z,8.88
2017-11-17T05:22:27.031Z,8.94
2017-11-17T05:23:07.622Z,8.89
2017-11-17T05:23:48.439Z,8.97
2017-11-17T05:24:29.080Z,8.97
2017-11-17T05:25:09.707Z,8.95
2017-11-17T05:25:50.323Z,8.91
2017-11-17T05:26:30.910Z,8.92
2017-11-17T05:27:11.500Z,8.88
2017-11-17T05:27:52.196Z,8.87
2017-11-17T05:28:32.772Z,8.94
2017-11-17T05:29:13.396Z,8.88
2017-11-17T05:29:54.723Z,8.88
2017-11-17T05:30:35.577Z,8.95
2017-11-17T05:31:16.170Z,8.94
2017-11-17T05:31:56.755Z,8.95
2017-11-17T05:32:37.642Z,8.89
2017-11-17T05:33:18.244Z,8.91
2017-11-17T05:33:59.025Z,8.91
2017-11-17T05:34:39.714Z,8.92
2017-11-17T05:35:20.402Z,8.89
2017-11-17T05:36:01.025Z,8.91
2017-11-17T05:36:41.762Z,8.95
2017-11-17T05:37:22.362Z,8.97
2017-11-17T05:38:03.016Z,8.92
2017-11-17T05:38:43.605Z,8.91
2017-11-17T05:39:24.202Z,8.82
2017-11-17T05:40:04.799Z,8.95
2017-11-17T05:40:45.366Z,8.91
2017-11-17T05:41:26.336Z,8.89
2017-11-17T05:42:06.929Z,8.88
2017-11-17T05:42:47.513Z,8.89
2017-11-17T05:43:28.103Z,8.89
2017-11-17T05:44:08.700Z,8.95
2017-11-17T05:44:49.277Z,8.92
2017-11-17T05:45:29.877Z,8.94
2017-11-17T05:46:10.510Z,8.94
2017-11-17T05:46:51.128Z,8.94
2017-11-17T05:47:31.736Z,8.92
2017-11-17T05:48:12.329Z,8.88
2017-11-17T05:48:52.921Z,8.94
2017-11-17T05:49:33.505Z,8.94
2017-11-17T05:50:14.099Z,8.92
2017-11-17T05:50:54.709Z,8.95
2017-11-17T05:51:35.300Z,8.89
2017-11-17T05:52:15.885Z,8.91
2017-11-17T05:52:56.485Z,9
2017-11-17T05:53:37.078Z,8.94
2017-11-17T05:54:17.658Z,8.91
2017-11-17T05:54:58.249Z,8.95
2017-11-17T05:55:38.827Z,8.94
2017-11-17T05:56:19.418Z,8.99
2017-11-17T05:56:59.995Z,8.94
2017-11-17T05:57:40.648Z,8.92
2017-11-17T05:58:21.217Z,8.94
2017-11-17T05:59:01.805Z,8.94
2017-11-17T05:59:42.445Z,8.92
2017-11-17T06:00:23.082Z,8.94
2017-11-17T06:01:03.658Z,8.95
2017-11-17T06:01:44.222Z,8.92
2017-11-17T06:02:24.786Z,8.95
2017-11-17T06:03:05.357Z,8.92
2017-11-17T06:03:45.919Z,8.94
2017-11-17T06:04:26.491Z,8.94
2017-11-17T06:05:07.075Z,8.91
2017-11-17T06:05:47.658Z,8.95
2017-11-17T06:06:28.210Z,8.97
2017-11-17T06:07:08.849Z,8.91
2017-11-17T06:07:49.446Z,8.91
2017-11-17T06:08:30.005Z,9.03
2017-11-17T06:09:10.602Z,8.99
2017-11-17T06:09:51.178Z,8.99
2017-11-17T06:10:31.744Z,8.92
2017-11-17T06:11:12.305Z,8.95
2017-11-17T06:11:52.888Z,8.99
2017-11-17T06:12:33.537Z,9.06
2017-11-17T06:13:14.139Z,9.08
2017-11-17T06:13:54.726Z,9.08
2017-11-17T06:14:35.280Z,9
2017-11-17T06:15:15.854Z,9
2017-11-17T06:15:56.424Z,8.95
2017-11-17T06:16:36.982Z,9.08
2017-11-17T06:17:17.592Z,9.08
2017-11-17T06:17:58.184Z,9.08
2017-11-17T06:18:38.754Z,9.08
2017-11-17T06:19:19.364Z,8.94
2017-11-17T06:19:59.933Z,9.14
2017-11-17T06:20:40.556Z,9.23
2017-11-17T06:21:21.140Z,9.26
2017-11-17T06:22:01.758Z,9.39
2017-11-17T06:22:42.346Z,9.48
2017-11-17T06:23:22.934Z,9.51
2017-11-17T06:24:03.617Z,9.62
2017-11-17T06:24:44.196Z,9.65
2017-11-17T06:25:24.794Z,9.73
2017-11-17T06:26:05.385Z,9.82
2017-11-17T06:26:45.951Z,9.82
2017-11-17T06:27:26.523Z,10.04
2017-11-17T06:28:07.095Z,9.99
2017-11-17T06:28:47.663Z,10.02
2017-11-17T06:29:28.340Z,10.19
2017-11-17T06:30:08.912Z,10.25
2017-11-17T06:30:49.574Z,10.22
2017-11-17T06:31:30.236Z,10.44
2017-11-17T06:32:10.796Z,10.46
2017-11-17T06:32:51.368Z,10.6
2017-11-17T06:33:31.967Z,10.61
2017-11-17T06:34:12.863Z,10.54
2017-11-17T06:34:53.453Z,10.61
2017-11-17T06:35:34.041Z,10.54
2017-11-17T06:36:14.783Z,10.46
2017-11-17T06:36:55.383Z,10.42
2017-11-17T06:37:36.015Z,10.49
2017-11-17T06:38:16.633Z,10.42
2017-11-17T06:38:57.322Z,10.41
2017-11-17T06:39:37.890Z,10.44
2017-11-17T06:40:18.465Z,10.51
2017-11-17T06:40:59.031Z,10.57
2017-11-17T06:41:39.624Z,10.57
2017-11-17T06:42:20.210Z,10.6
2017-11-17T06:43:00.785Z,10.57
2017-11-17T06:43:41.876Z,10.72
2017-11-17T06:44:22.443Z,10.78
2017-11-17T06:45:03.024Z,10.87
2017-11-17T06:45:43.605Z,10.75
2017-11-17T06:46:24.370Z,10.82
2017-11-17T06:47:04.971Z,10.87
2017-11-17T06:47:45.557Z,10.97
2017-11-17T06:48:26.136Z,11
2017-11-17T06:49:06.759Z,11
2017-11-17T06:49:47.339Z,11.1
2017-11-17T06:50:27.958Z,11.12
2017-11-17T06:51:08.559Z,11.05
2017-11-17T06:51:49.165Z,11.05
2017-11-17T06:52:29.741Z,11.04
2017-11-17T06:53:10.323Z,11.07
2017-11-17T06:53:50.919Z,11.07
2017-11-17T06:54:31.490Z,11.18
2017-11-17T06:55:12.061Z,11.19
2017-11-17T06:55:53.215Z,11.25
2017-11-17T06:56:34.348Z,11.3
2017-11-17T06:57:15.228Z,11.33
2017-11-17T06:57:55.880Z,11.27
2017-11-17T06:58:37.732Z,11.4
2017-11-17T06:59:18.305Z,11.4
2017-11-17T06:59:58.881Z,11.44
2017-11-17T07:00:39.498Z,11.62
2017-11-17T07:01:20.300Z,11.6
2017-11-17T07:02:00.895Z,11.69
2017-11-17T07:02:41.650Z,11.77
2017-11-17T07:03:22.376Z,11.81
2017-11-17T07:04:03.112Z,11.84
2017-11-17T07:04:44.000Z,11.83
2017-11-17T07:05:24.855Z,11.84
2017-11-17T07:06:05.631Z,11.84
2017-11-17T07:06:46.220Z,11.8
2017-11-17T07:07:26.970Z,11.83
2017-11-17T07:08:07.723Z,11.81
2017-11-17T07:08:48.894Z,11.7
2017-11-17T07:09:29.433Z,11.54
2017-11-17T07:10:10.063Z,11.54
2017-11-17T07:10:50.688Z,11.43
2017-11-17T07:11:31.396Z,11.37
2017-11-17T07:12:12.115Z,11.23
2017-11-17T07:12:52.738Z,11.3
2017-11-17T07:13:35.583Z,11.27
2017-11-17T07:14:18.892Z,11.44
2017-11-17T07:15:08.887Z,11.36
2017-11-17T07:15:53.448Z,11.47
2017-11-17T07:16:34.070Z,11.54
2017-11-17T07:17:14.647Z,11.6
2017-11-17T07:17:55.228Z,11.59
2017-11-17T07:18:35.800Z,11.55
2017-11-17T07:19:16.426Z,11.57
2017-11-17T07:19:57.228Z,11.5
2017-11-17T07:20:37.893Z,11.55
2017-11-17T07:21:18.539Z,11.65
2017-11-17T07:21:59.193Z,11.66
2017-11-17T07:22:40.045Z,11.65
2017-11-17T07:23:23.813Z,11.78
2017-11-17T07:24:04.382Z,11.86
2017-11-17T07:24:44.973Z,11.9
2017-11-17T07:25:25.557Z,12.04
2017-11-17T07:26:08.459Z,12
2017-11-17T07:26:49.578Z,11.99
2017-11-17T07:27:30.197Z,12.02
2017-11-17T07:28:10.774Z,11.99
2017-11-17T07:28:51.369Z,12.03
2017-11-17T07:29:31.974Z,11.9
2017-11-17T07:30:12.814Z,11.94
2017-11-17T07:30:53.502Z,11.99
2017-11-17T07:31:34.095Z,11.95
2017-11-17T07:32:14.669Z,11.95
2017-11-17T07:32:55.233Z,11.97
2017-11-17T07:33:35.815Z,11.99
2017-11-17T07:34:18.177Z,12.02
2017-11-17T07:34:58.764Z,11.94
2017-11-17T07:35:39.379Z,11.91
2017-11-17T07:36:19.984Z,11.81
2017-11-17T07:37:00.578Z,11.77
2017-11-17T07:37:41.154Z,11.63
2017-11-17T07:38:21.735Z,11.68
2017-11-17T07:39:02.299Z,11.75
2017-11-17T07:39:42.879Z,11.65
2017-11-17T07:40:23.444Z,11.59
2017-11-17T07:41:04.023Z,11.51
2017-11-17T07:41:44.589Z,11.48
2017-11-17T07:42:25.180Z,11.47
2017-11-17T07:43:05.751Z,11.52
2017-11-17T07:43:46.371Z,11.51
2017-11-17T07:44:26.948Z,11.36
2017-11-17T07:45:07.518Z,11.35
2017-11-17T07:45:48.102Z,11.12
2017-11-17T07:46:28.673Z,11.05
2017-11-17T07:47:09.311Z,10.93
2017-11-17T07:47:49.894Z,10.9
2017-11-17T07:48:30.480Z,10.87
2017-11-17T07:49:11.057Z,10.89
2017-11-17T07:49:51.698Z,10.87
2017-11-17T07:50:32.325Z,10.89
2017-11-17T07:51:12.924Z,10.84
2017-11-17T07:51:53.530Z,10.76
2017-11-17T07:52:34.176Z,10.75
2017-11-17T07:53:14.772Z,10.59
2017-11-17T07:53:55.387Z,10.6
2017-11-17T07:54:35.995Z,10.56
2017-11-17T07:55:16.598Z,10.49
2017-11-17T07:55:57.196Z,10.35
2017-11-17T07:56:37.788Z,10.23
2017-11-17T07:57:18.403Z,10.31
2017-11-17T07:57:58.995Z,10.37
2017-11-17T07:58:39.591Z,10.42
2017-11-17T07:59:20.182Z,10.44
2017-11-17T08:00:00.809Z,10.48
2017-11-17T08:00:41.366Z,10.4
2017-11-17T08:01:21.959Z,10.35
2017-11-17T08:02:02.544Z,10.46
2017-11-17T08:02:43.140Z,10.37
2017-11-17T08:03:23.750Z,10.25
2017-11-17T08:04:04.370Z,10.17
2017-11-17T08:04:44.951Z,10.25
2017-11-17T08:05:25.557Z,10.22
2017-11-17T08:06:06.176Z,10.35
2017-11-17T08:06:46.737Z,10.33
2017-11-17T08:07:27.349Z,10.42
2017-11-17T08:08:07.955Z,10.63
2017-11-17T08:08:48.561Z,10.63
2017-11-17T08:09:29.157Z,10.63
2017-11-17T08:10:09.767Z,10.57
2017-11-17T08:10:50.364Z,10.54
2017-11-17T08:11:30.955Z,10.56
2017-11-17T08:12:11.559Z,10.6
2017-11-17T08:12:52.176Z,10.51
2017-11-17T08:13:32.771Z,10.59
2017-11-17T08:14:13.392Z,10.67
2017-11-17T08:14:53.973Z,10.74
2017-11-17T08:15:34.586Z,10.69
2017-11-17T08:16:15.188Z,10.76
2017-11-17T08:16:55.787Z,10.84
2017-11-17T08:17:36.382Z,10.94
2017-11-17T08:18:17.011Z,11.02
2017-11-17T08:18:57.617Z,11.27
2017-11-17T08:19:38.203Z,11.4
2017-11-17T08:20:18.782Z,11.44
2017-11-17T08:20:59.400Z,11.51
2017-11-17T08:21:39.983Z,11.75
2017-11-17T08:22:20.613Z,11.78
2017-11-17T08:23:01.191Z,11.99
2017-11-17T08:23:41.797Z,12.18
2017-11-17T08:24:22.418Z,12.18
2017-11-17T08:25:02.978Z,12.21
2017-11-17T08:25:43.585Z,12.2
2017-11-17T08:26:24.168Z,12.2
2017-11-17T08:27:04.753Z,12.39
2017-11-17T08:27:45.348Z,12.4
2017-11-17T08:28:25.942Z,12.47
2017-11-17T08:29:06.509Z,12.57
2017-11-17T08:29:47.117Z,12.53
2017-11-17T08:30:27.684Z,12.55
2017-11-17T08:31:08.276Z,12.53
2017-11-17T08:31:48.860Z,12.57
2017-11-17T08:32:29.440Z,12.46
2017-11-17T08:33:10.019Z,12.49
2017-11-17T08:33:50.603Z,12.36
2017-11-17T08:34:31.213Z,12.32
2017-11-17T08:35:11.804Z,12.32
2017-11-17T08:35:52.382Z,12.35
2017-11-17T08:36:32.957Z,12.31
2017-11-17T08:37:13.543Z,12.39
2017-11-17T08:37:54.151Z,12.54
2017-11-17T08:38:34.706Z,12.55
2017-11-17T08:39:15.276Z,12.62
2017-11-17T08:39:55.912Z,12.67
2017-11-17T08:40:36.479Z,12.75
2017-11-17T08:41:17.097Z,12.65
2017-11-17T08:41:57.668Z,12.72
2017-11-17T08:42:38.257Z,12.85
2017-11-17T08:43:18.867Z,13.03
2017-11-17T08:43:59.434Z,13.09
2017-11-17T08:44:40.039Z,13.04
2017-11-17T08:45:20.673Z,13.11
2017-11-17T08:46:01.254Z,13.15
2017-11-17T08:46:41.841Z,13.13
2017-11-17T08:47:22.433Z,13.28
2017-11-17T08:48:03.006Z,13.38
2017-11-17T08:48:43.585Z,13.41
2017-11-17T08:49:24.157Z,13.52
2017-11-17T08:50:04.755Z,13.41
2017-11-17T08:50:45.336Z,13.53
2017-11-17T08:51:25.943Z,13.44
2017-11-17T08:52:06.541Z,13.54
2017-11-17T08:52:47.135Z,13.57
2017-11-17T08:53:27.752Z,13.57
2017-11-17T08:54:08.332Z,13.6
2017-11-17T08:54:48.942Z,13.62
2017-11-17T08:55:29.561Z,13.62
2017-11-17T08:56:10.148Z,13.71
2017-11-17T08:56:50.764Z,13.68
2017-11-17T08:57:31.342Z,13.81
2017-11-17T08:58:11.948Z,13.87